Archival Weather

Norman Y Mineta San Jose Intl

San Jose, California (KSJC)

Report from: Wednesday, February 21, 2024 2:27 AM PST
Current time: Monday, June 17, 2024 12:04 AM PDT

Current weather – Weather history – Daily summaries
Weather forecast

Present weatherMist
Temperature9.4°C (48.9°F)
Dew point7.8°C (46.0°F)
Winds Calm
Visibility1.8 mi. (2.8 km)
Clouds Sky clear
Altimeter30.08 in.Hg (1019 mB)
Relative humidity90 %
Density altitude-701 ft. (-214 m)
Remarks Fully automated report
Automated weather observing station with precipitation discriminator
Flight conditions Instrument Meteorological Conditions
Raw dataKSJC 211027Z AUTO 00000KT 1 3/4SM R30L/6000VP6000FT BR CLR 09/08 A3008 RMK AO2 T00940078
An error has occurred. This application may no longer respond until reloaded. Reload 🗙